sensor_id;sensor_type;location;lat;lon;timestamp;pressure;altitude;pressure_sealevel;temperature;humidity
18858;BME280;9558;50.178;8.370;2024-02-21T00:02:11;99063.09;;;6.13;100.00
18858;BME280;9558;50.178;8.370;2024-02-21T00:04:57;99065.53;;;6.14;100.00
18858;BME280;9558;50.178;8.370;2024-02-21T00:07:44;99057.81;;;6.14;100.00
18858;BME280;9558;50.178;8.370;2024-02-21T00:10:31;99057.22;;;6.22;100.00
18858;BME280;9558;50.178;8.370;2024-02-21T00:13:19;99049.06;;;6.17;100.00
18858;BME280;9558;50.178;8.370;2024-02-21T00:16:06;99034.22;;;6.20;100.00
18858;BME280;9558;50.178;8.370;2024-02-21T00:18:53;99028.03;;;6.23;100.00
18858;BME280;9558;50.178;8.370;2024-02-21T00:21:40;99020.84;;;6.27;100.00
18858;BME280;9558;50.178;8.370;2024-02-21T00:24:26;99014.19;;;6.24;100.00
18858;BME280;9558;50.178;8.370;2024-02-21T00:27:13;99004.75;;;6.25;100.00
18858;BME280;9558;50.178;8.370;2024-02-21T00:30:01;98999.03;;;6.21;100.00
18858;BME280;9558;50.178;8.370;2024-02-21T00:32:48;98992.25;;;6.20;100.00
18858;BME280;9558;50.178;8.370;2024-02-21T00:35:35;98997.41;;;6.20;100.00
18858;BME280;9558;50.178;8.370;2024-02-21T00:38:22;98998.38;;;6.19;100.00
18858;BME280;9558;50.178;8.370;2024-02-21T00:41:08;98989.56;;;6.21;100.00
18858;BME280;9558;50.178;8.370;2024-02-21T00:43:55;98983.34;;;6.24;100.00
18858;BME280;9558;50.178;8.370;2024-02-21T00:46:43;98979.59;;;6.28;100.00
18858;BME280;9558;50.178;8.370;2024-02-21T00:49:30;98987.56;;;6.25;100.00
18858;BME280;9558;50.178;8.370;2024-02-21T00:52:17;98995.00;;;6.28;100.00
18858;BME280;9558;50.178;8.370;2024-02-21T00:55:04;99002.72;;;6.28;100.00
18858;BME280;9558;50.178;8.370;2024-02-21T00:57:51;99001.09;;;6.27;100.00
18858;BME280;9558;50.178;8.370;2024-02-21T01:00:38;99010.69;;;6.25;100.00
18858;BME280;9558;50.178;8.370;2024-02-21T01:03:26;99010.69;;;6.25;100.00
18858;BME280;9558;50.178;8.370;2024-02-21T01:06:12;99009.78;;;6.26;100.00
18858;BME280;9558;50.178;8.370;2024-02-21T01:08:59;99009.78;;;6.26;100.00
18858;BME280;9558;50.178;8.370;2024-02-21T01:11:46;99000.16;;;6.28;100.00
18858;BME280;9558;50.178;8.370;2024-02-21T01:14:33;98992.31;;;6.30;100.00
18858;BME280;9558;50.178;8.370;2024-02-21T01:17:19;99007.19;;;6.26;100.00
18858;BME280;9558;50.178;8.370;2024-02-21T01:20:08;99010.19;;;6.31;100.00
18858;BME280;9558;50.178;8.370;2024-02-21T01:22:55;99005.75;;;6.33;100.00
18858;BME280;9558;50.178;8.370;2024-02-21T01:25:42;98994.34;;;6.26;100.00
18858;BME280;9558;50.178;8.370;2024-02-21T01:28:29;98994.88;;;6.30;100.00
18858;BME280;9558;50.178;8.370;2024-02-21T01:31:16;98984.72;;;6.28;100.00
18858;BME280;9558;50.178;8.370;2024-02-21T01:34:03;98970.94;;;6.29;100.00
18858;BME280;9558;50.178;8.370;2024-02-21T01:36:51;98974.44;;;6.28;100.00
18858;BME280;9558;50.178;8.370;2024-02-21T01:39:38;98962.31;;;6.30;100.00
18858;BME280;9558;50.178;8.370;2024-02-21T01:42:25;98960.22;;;6.24;100.00
18858;BME280;9558;50.178;8.370;2024-02-21T01:45:11;98954.16;;;6.25;100.00
18858;BME280;9558;50.178;8.370;2024-02-21T01:47:58;98948.75;;;6.28;100.00
18858;BME280;9558;50.178;8.370;2024-02-21T01:50:45;98950.13;;;6.32;100.00
18858;BME280;9558;50.178;8.370;2024-02-21T01:53:36;98953.88;;;6.28;100.00
18858;BME280;9558;50.178;8.370;2024-02-21T01:56:24;98937.94;;;6.34;100.00
18858;BME280;9558;50.178;8.370;2024-02-21T01:59:11;98927.13;;;6.31;100.00
18858;BME280;9558;50.178;8.370;2024-02-21T02:01:59;98930.63;;;6.30;100.00
18858;BME280;9558;50.178;8.370;2024-02-21T02:04:47;98932.94;;;6.33;100.00
18858;BME280;9558;50.178;8.370;2024-02-21T02:07:34;98932.00;;;6.34;100.00
18858;BME280;9558;50.178;8.370;2024-02-21T02:10:22;98922.94;;;6.39;100.00
18858;BME280;9558;50.178;8.370;2024-02-21T02:13:09;98915.91;;;6.42;100.00
18858;BME280;9558;50.178;8.370;2024-02-21T02:15:56;98920.25;;;6.41;100.00
18858;BME280;9558;50.178;8.370;2024-02-21T02:18:43;98915.50;;;6.36;100.00
18858;BME280;9558;50.178;8.370;2024-02-21T02:21:32;98912.81;;;6.38;100.00
18858;BME280;9558;50.178;8.370;2024-02-21T02:24:23;98918.75;;;6.38;100.00
18858;BME280;9558;50.178;8.370;2024-02-21T02:27:11;98920.81;;;6.45;100.00
18858;BME280;9558;50.178;8.370;2024-02-21T02:29:57;98906.88;;;6.47;100.00
18858;BME280;9558;50.178;8.370;2024-02-21T02:32:44;98903.88;;;6.42;100.00
18858;BME280;9558;50.178;8.370;2024-02-21T02:35:32;98904.28;;;6.37;100.00
18858;BME280;9558;50.178;8.370;2024-02-21T02:38:20;98904.03;;;6.40;100.00
18858;BME280;9558;50.178;8.370;2024-02-21T02:41:08;98896.97;;;6.43;100.00
18858;BME280;9558;50.178;8.370;2024-02-21T02:43:55;98898.63;;;6.44;100.00
18858;BME280;9558;50.178;8.370;2024-02-21T02:46:42;98893.22;;;6.47;100.00
18858;BME280;9558;50.178;8.370;2024-02-21T02:49:29;98909.34;;;6.49;100.00
18858;BME280;9558;50.178;8.370;2024-02-21T02:52:15;98913.25;;;6.53;100.00
18858;BME280;9558;50.178;8.370;2024-02-21T02:55:03;98906.38;;;6.53;100.00
18858;BME280;9558;50.178;8.370;2024-02-21T02:57:51;98902.72;;;6.56;100.00
18858;BME280;9558;50.178;8.370;2024-02-21T03:00:38;98892.31;;;6.57;100.00
18858;BME280;9558;50.178;8.370;2024-02-21T03:03:24;98883.09;;;6.55;100.00
18858;BME280;9558;50.178;8.370;2024-02-21T03:06:11;98870.63;;;6.60;100.00
18858;BME280;9558;50.178;8.370;2024-02-21T03:08:58;98863.19;;;6.57;100.00
18858;BME280;9558;50.178;8.370;2024-02-21T03:11:46;98855.19;;;6.60;100.00
18858;BME280;9558;50.178;8.370;2024-02-21T03:14:34;98848.97;;;6.63;100.00
18858;BME280;9558;50.178;8.370;2024-02-21T03:17:21;98849.25;;;6.60;100.00
18858;BME280;9558;50.178;8.370;2024-02-21T03:20:08;98843.03;;;6.62;100.00
18858;BME280;9558;50.178;8.370;2024-02-21T03:22:55;98841.13;;;6.64;100.00
18858;BME280;9558;50.178;8.370;2024-02-21T03:25:41;98839.78;;;6.60;100.00
18858;BME280;9558;50.178;8.370;2024-02-21T03:28:28;98832.88;;;6.61;100.00
18858;BME280;9558;50.178;8.370;2024-02-21T03:31:16;98822.72;;;6.59;100.00
18858;BME280;9558;50.178;8.370;2024-02-21T03:34:03;98819.31;;;6.58;100.00
18858;BME280;9558;50.178;8.370;2024-02-21T03:36:50;98811.63;;;6.58;100.00
18858;BME280;9558;50.178;8.370;2024-02-21T03:39:36;98822.72;;;6.59;100.00
18858;BME280;9558;50.178;8.370;2024-02-21T03:42:23;98827.88;;;6.59;100.00
18858;BME280;9558;50.178;8.370;2024-02-21T03:45:10;98832.31;;;6.57;100.00
18858;BME280;9558;50.178;8.370;2024-02-21T03:47:58;98837.59;;;6.55;100.00
18858;BME280;9558;50.178;8.370;2024-02-21T03:50:45;98832.59;;;6.54;100.00
18858;BME280;9558;50.178;8.370;2024-02-21T03:53:32;98829.75;;;6.57;100.00
18858;BME280;9558;50.178;8.370;2024-02-21T03:56:19;98834.75;;;6.58;100.00
18858;BME280;9558;50.178;8.370;2024-02-21T03:59:07;98836.81;;;6.55;100.00
18858;BME280;9558;50.178;8.370;2024-02-21T04:01:54;98838.16;;;6.59;100.00
18858;BME280;9558;50.178;8.370;2024-02-21T04:04:44;98830.44;;;6.59;100.00
18858;BME280;9558;50.178;8.370;2024-02-21T04:07:31;98842.34;;;6.60;100.00
18858;BME280;9558;50.178;8.370;2024-02-21T04:10:18;98837.19;;;6.60;100.00
18858;BME280;9558;50.178;8.370;2024-02-21T04:13:06;98828.69;;;6.60;100.00
18858;BME280;9558;50.178;8.370;2024-02-21T04:15:53;98825.16;;;6.61;100.00
18858;BME280;9558;50.178;8.370;2024-02-21T04:18:40;98815.53;;;6.63;100.00
18858;BME280;9558;50.178;8.370;2024-02-21T04:21:28;98810.97;;;6.66;100.00
18858;BME280;9558;50.178;8.370;2024-02-21T04:24:15;98802.41;;;6.66;100.00
18858;BME280;9558;50.178;8.370;2024-02-21T04:27:02;98806.91;;;6.64;100.00
18858;BME280;9558;50.178;8.370;2024-02-21T04:29:48;98801.34;;;6.68;100.00
18858;BME280;9558;50.178;8.370;2024-02-21T04:32:35;98790.25;;;6.68;100.00
18858;BME280;9558;50.178;8.370;2024-02-21T04:35:22;98786.88;;;6.67;100.00
18858;BME280;9558;50.178;8.370;2024-02-21T04:38:10;98782.66;;;6.66;100.00
18858;BME280;9558;50.178;8.370;2024-02-21T04:40:57;98776.69;;;6.66;100.00
18858;BME280;9558;50.178;8.370;2024-02-21T04:43:45;98780.38;;;6.63;100.00
18858;BME280;9558;50.178;8.370;2024-02-21T04:46:32;98781.19;;;6.64;100.00
18858;BME280;9558;50.178;8.370;2024-02-21T04:49:19;98773.59;;;6.62;100.00
18858;BME280;9558;50.178;8.370;2024-02-21T04:52:06;98769.13;;;6.64;100.00
18858;BME280;9558;50.178;8.370;2024-02-21T04:54:54;98756.66;;;6.60;100.00
18858;BME280;9558;50.178;8.370;2024-02-21T04:57:41;98754.78;;;6.62;100.00
18858;BME280;9558;50.178;8.370;2024-02-21T05:00:28;98752.22;;;6.62;100.00
18858;BME280;9558;50.178;8.370;2024-02-21T05:03:15;98759.81;;;6.63;100.00
18858;BME280;9558;50.178;8.370;2024-02-21T05:06:01;98776.97;;;6.63;100.00
18858;BME280;9558;50.178;8.370;2024-02-21T05:08:48;98778.03;;;6.60;100.00
18858;BME280;9558;50.178;8.370;2024-02-21T05:11:36;98768.44;;;6.62;100.00
18858;BME280;9558;50.178;8.370;2024-02-21T05:14:23;98772.66;;;6.63;100.00
18858;BME280;9558;50.178;8.370;2024-02-21T05:17:10;98781.97;;;6.64;100.00
18858;BME280;9558;50.178;8.370;2024-02-21T05:19:56;98786.19;;;6.65;100.00
18858;BME280;9558;50.178;8.370;2024-02-21T05:22:43;98789.69;;;6.64;100.00
18858;BME280;9558;50.178;8.370;2024-02-21T05:25:30;98791.31;;;6.65;100.00
18858;BME280;9558;50.178;8.370;2024-02-21T05:28:18;98786.19;;;6.65;100.00
18858;BME280;9558;50.178;8.370;2024-02-21T05:31:05;98787.25;;;6.63;100.00
18858;BME280;9558;50.178;8.370;2024-02-21T05:33:52;98770.31;;;6.60;100.00
18858;BME280;9558;50.178;8.370;2024-02-21T05:36:38;98768.03;;;6.57;100.00
18858;BME280;9558;50.178;8.370;2024-02-21T05:39:25;98755.88;;;6.59;100.00
18858;BME280;9558;50.178;8.370;2024-02-21T05:42:12;98755.72;;;6.51;100.00
18858;BME280;9558;50.178;8.370;2024-02-21T05:45:00;98750.84;;;6.48;100.00
18858;BME280;9558;50.178;8.370;2024-02-21T05:47:47;98745.56;;;6.39;100.00
18858;BME280;9558;50.178;8.370;2024-02-21T05:50:36;98744.59;;;6.31;100.00
18858;BME280;9558;50.178;8.370;2024-02-21T05:53:23;98738.25;;;6.25;100.00
18858;BME280;9558;50.178;8.370;2024-02-21T05:56:10;98736.22;;;6.19;100.00
18858;BME280;9558;50.178;8.370;2024-02-21T05:58:57;98727.41;;;6.12;100.00
18858;BME280;9558;50.178;8.370;2024-02-21T06:01:45;98726.03;;;6.08;100.00
18858;BME280;9558;50.178;8.370;2024-02-21T06:04:31;98716.53;;;5.98;100.00
18858;BME280;9558;50.178;8.370;2024-02-21T06:07:18;98704.06;;;5.94;100.00
18858;BME280;9558;50.178;8.370;2024-02-21T06:10:06;98709.75;;;5.87;100.00
18858;BME280;9558;50.178;8.370;2024-02-21T06:12:53;98707.56;;;5.83;100.00
18858;BME280;9558;50.178;8.370;2024-02-21T06:15:40;98723.22;;;5.80;100.00
18858;BME280;9558;50.178;8.370;2024-02-21T06:18:28;98725.94;;;5.78;100.00
18858;BME280;9558;50.178;8.370;2024-02-21T06:21:15;98728.63;;;5.77;100.00
18858;BME280;9558;50.178;8.370;2024-02-21T06:24:02;98727.53;;;5.69;100.00
18858;BME280;9558;50.178;8.370;2024-02-21T06:26:49;98724.28;;;5.67;100.00
18858;BME280;9558;50.178;8.370;2024-02-21T06:29:35;98721.84;;;5.66;100.00
18858;BME280;9558;50.178;8.370;2024-02-21T06:32:22;98703.97;;;5.64;100.00
18858;BME280;9558;50.178;8.370;2024-02-21T06:35:10;98703.97;;;5.64;100.00
18858;BME280;9558;50.178;8.370;2024-02-21T06:37:57;98696.53;;;5.61;100.00
18858;BME280;9558;50.178;8.370;2024-02-21T06:40:44;98695.59;;;5.62;100.00
18858;BME280;9558;50.178;8.370;2024-02-21T06:43:35;98691.69;;;5.58;100.00
18858;BME280;9558;50.178;8.370;2024-02-21T06:46:24;98692.09;;;5.63;100.00
18858;BME280;9558;50.178;8.370;2024-02-21T06:49:11;98698.84;;;5.64;100.00
18858;BME280;9558;50.178;8.370;2024-02-21T06:52:03;98702.13;;;5.66;100.00
18858;BME280;9558;50.178;8.370;2024-02-21T06:54:50;98709.28;;;5.72;100.00
18858;BME280;9558;50.178;8.370;2024-02-21T06:57:37;98715.13;;;5.75;100.00
18858;BME280;9558;50.178;8.370;2024-02-21T07:00:24;98713.53;;;5.83;100.00
18858;BME280;9558;50.178;8.370;2024-02-21T07:03:11;98707.84;;;5.89;100.00
18858;BME280;9558;50.178;8.370;2024-02-21T07:05:58;98703.94;;;5.95;100.00
18858;BME280;9558;50.178;8.370;2024-02-21T07:08:46;98709.53;;;6.00;100.00
18858;BME280;9558;50.178;8.370;2024-02-21T07:11:33;98710.63;;;6.08;100.00
18858;BME280;9558;50.178;8.370;2024-02-21T07:14:19;98699.66;;;6.15;100.00
18858;BME280;9558;50.178;8.370;2024-02-21T07:17:06;98693.47;;;6.18;100.00
18858;BME280;9558;50.178;8.370;2024-02-21T07:19:53;98692.25;;;6.22;100.00
18858;BME280;9558;50.178;8.370;2024-02-21T07:22:42;98687.50;;;6.27;100.00
18858;BME280;9558;50.178;8.370;2024-02-21T07:25:30;98704.69;;;6.36;100.00
18858;BME280;9558;50.178;8.370;2024-02-21T07:28:17;98701.06;;;6.39;100.00
18858;BME280;9558;50.178;8.370;2024-02-21T07:31:04;98705.50;;;6.47;100.00
18858;BME280;9558;50.178;8.370;2024-02-21T07:33:51;98711.59;;;6.46;100.00
18858;BME280;9558;50.178;8.370;2024-02-21T07:36:37;98706.59;;;6.54;100.00
18858;BME280;9558;50.178;8.370;2024-02-21T07:39:24;98696.31;;;6.64;100.00
18858;BME280;9558;50.178;8.370;2024-02-21T07:42:13;98705.78;;;6.63;100.00
18858;BME280;9558;50.178;8.370;2024-02-21T07:45:01;98703.31;;;6.71;100.00
18858;BME280;9558;50.178;8.370;2024-02-21T07:47:49;98700.22;;;6.78;100.00
18858;BME280;9558;50.178;8.370;2024-02-21T07:50:36;98699.25;;;6.79;100.00
18858;BME280;9558;50.178;8.370;2024-02-21T07:53:23;98691.94;;;6.84;100.00
18858;BME280;9558;50.178;8.370;2024-02-21T07:56:09;98705.22;;;6.89;100.00
18858;BME280;9558;50.178;8.370;2024-02-21T07:58:58;98694.38;;;6.95;100.00
18858;BME280;9558;50.178;8.370;2024-02-21T08:01:45;98694.63;;;7.02;100.00
18858;BME280;9558;50.178;8.370;2024-02-21T08:04:31;98699.34;;;7.06;100.00
18858;BME280;9558;50.178;8.370;2024-02-21T08:07:18;98689.84;;;7.07;100.00
18858;BME280;9558;50.178;8.370;2024-02-21T08:10:06;98681.84;;;7.10;100.00
18858;BME280;9558;50.178;8.370;2024-02-21T08:12:56;98674.03;;;7.12;100.00
18858;BME280;9558;50.178;8.370;2024-02-21T08:15:44;98670.19;;;7.16;100.00
18858;BME280;9558;50.178;8.370;2024-02-21T08:18:31;98668.56;;;7.24;100.00
18858;BME280;9558;50.178;8.370;2024-02-21T08:21:21;98656.63;;;7.23;100.00
18858;BME280;9558;50.178;8.370;2024-02-21T08:24:08;98660.41;;;7.29;100.00
18858;BME280;9558;50.178;8.370;2024-02-21T08:26:56;98664.31;;;7.33;100.00
18858;BME280;9558;50.178;8.370;2024-02-21T08:29:43;98660.78;;;7.34;100.00
18858;BME280;9558;50.178;8.370;2024-02-21T08:32:31;98658.88;;;7.36;100.00
18858;BME280;9558;50.178;8.370;2024-02-21T08:35:18;98661.16;;;7.39;100.00
18858;BME280;9558;50.178;8.370;2024-02-21T08:38:05;98655.44;;;7.46;100.00
18858;BME280;9558;50.178;8.370;2024-02-21T08:40:52;98652.72;;;7.47;100.00
18858;BME280;9558;50.178;8.370;2024-02-21T08:43:39;98658.31;;;7.42;100.00
18858;BME280;9558;50.178;8.370;2024-02-21T08:46:26;98659.53;;;7.38;100.00
18858;BME280;9558;50.178;8.370;2024-02-21T08:49:14;98645.97;;;7.46;100.00
18858;BME280;9558;50.178;8.370;2024-02-21T08:52:01;98639.69;;;7.49;100.00
18858;BME280;9558;50.178;8.370;2024-02-21T08:54:48;98640.53;;;7.49;100.00
18858;BME280;9558;50.178;8.370;2024-02-21T08:57:38;98645.38;;;7.52;100.00
18858;BME280;9558;50.178;8.370;2024-02-21T09:00:25;98637.81;;;7.51;100.00
18858;BME280;9558;50.178;8.370;2024-02-21T09:03:12;98641.03;;;7.53;100.00
18858;BME280;9558;50.178;8.370;2024-02-21T09:06:00;98632.06;;;7.57;100.00
18858;BME280;9558;50.178;8.370;2024-02-21T09:08:47;98628.53;;;7.58;100.00
18858;BME280;9558;50.178;8.370;2024-02-21T09:11:34;98622.44;;;7.59;100.00
18858;BME280;9558;50.178;8.370;2024-02-21T09:14:21;98609.94;;;7.64;100.00
18858;BME280;9558;50.178;8.370;2024-02-21T09:17:08;98605.00;;;7.71;100.00
18858;BME280;9558;50.178;8.370;2024-02-21T09:19:55;98604.72;;;7.74;100.00
18858;BME280;9558;50.178;8.370;2024-02-21T09:22:46;98611.72;;;7.82;100.00
18858;BME280;9558;50.178;8.370;2024-02-21T09:25:35;98600.16;;;7.86;100.00
18858;BME280;9558;50.178;8.370;2024-02-21T09:28:22;98600.16;;;7.86;100.00
18858;BME280;9558;50.178;8.370;2024-02-21T09:31:09;98601.53;;;7.80;100.00
18858;BME280;9558;50.178;8.370;2024-02-21T09:33:56;98600.81;;;7.88;100.00
18858;BME280;9558;50.178;8.370;2024-02-21T09:36:43;98600.91;;;7.96;100.00
18858;BME280;9558;50.178;8.370;2024-02-21T09:39:31;98601.56;;;7.98;100.00
18858;BME280;9558;50.178;8.370;2024-02-21T09:42:20;98593.22;;;8.04;100.00
18858;BME280;9558;50.178;8.370;2024-02-21T09:45:09;98589.69;;;8.05;100.00
18858;BME280;9558;50.178;8.370;2024-02-21T09:48:15;98588.22;;;8.21;100.00
18858;BME280;9558;50.178;8.370;2024-02-21T09:51:07;98585.72;;;8.29;100.00
18858;BME280;9558;50.178;8.370;2024-02-21T09:53:56;98579.63;;;8.38;100.00
18858;BME280;9558;50.178;8.370;2024-02-21T09:56:46;98573.50;;;8.57;100.00
18858;BME280;9558;50.178;8.370;2024-02-21T09:59:34;98579.81;;;8.63;100.00
18858;BME280;9558;50.178;8.370;2024-02-21T10:02:20;98575.56;;;8.80;100.00
18858;BME280;9558;50.178;8.370;2024-02-21T10:05:07;98572.81;;;8.81;98.50
18858;BME280;9558;50.178;8.370;2024-02-21T10:07:55;98566.28;;;8.95;99.02
18858;BME280;9558;50.178;8.370;2024-02-21T10:10:43;98555.16;;;8.95;99.32
18858;BME280;9558;50.178;8.370;2024-02-21T10:13:31;98551.00;;;9.02;97.08
18858;BME280;9558;50.178;8.370;2024-02-21T10:16:18;98546.19;;;9.15;96.98
18858;BME280;9558;50.178;8.370;2024-02-21T10:19:05;98548.47;;;9.27;96.74
18858;BME280;9558;50.178;8.370;2024-02-21T10:22:13;98545.91;;;9.27;95.30
18858;BME280;9558;50.178;8.370;2024-02-21T10:25:07;98537.34;;;9.26;94.38
18858;BME280;9558;50.178;8.370;2024-02-21T10:27:54;98539.09;;;9.18;93.43
18858;BME280;9558;50.178;8.370;2024-02-21T10:30:50;98539.25;;;9.24;93.52
18858;BME280;9558;50.178;8.370;2024-02-21T10:33:38;98533.94;;;9.26;93.24
18858;BME280;9558;50.178;8.370;2024-02-21T10:36:25;98535.72;;;9.25;93.10
18858;BME280;9558;50.178;8.370;2024-02-21T10:39:12;98520.72;;;9.21;94.24
18858;BME280;9558;50.178;8.370;2024-02-21T10:42:00;98513.13;;;9.27;92.78
18858;BME280;9558;50.178;8.370;2024-02-21T10:44:51;98521.53;;;9.29;91.20
18858;BME280;9558;50.178;8.370;2024-02-21T10:47:39;98518.13;;;9.21;90.75
18858;BME280;9558;50.178;8.370;2024-02-21T10:50:31;98527.16;;;9.16;90.14
18858;BME280;9558;50.178;8.370;2024-02-21T10:53:23;98519.25;;;9.18;91.41
18858;BME280;9558;50.178;8.370;2024-02-21T10:56:21;98502.97;;;9.18;91.43
18858;BME280;9558;50.178;8.370;2024-02-21T10:59:09;98508.44;;;9.23;92.48
18858;BME280;9558;50.178;8.370;2024-02-21T11:01:56;98501.03;;;9.28;92.80
18858;BME280;9558;50.178;8.370;2024-02-21T11:04:45;98498.47;;;9.36;90.18
18858;BME280;9558;50.178;8.370;2024-02-21T11:07:35;98492.81;;;9.41;91.52
18858;BME280;9558;50.178;8.370;2024-02-21T11:10:23;98479.09;;;9.48;91.41
18858;BME280;9558;50.178;8.370;2024-02-21T11:13:10;98466.53;;;9.54;91.60
18858;BME280;9558;50.178;8.370;2024-02-21T11:16:09;98465.06;;;9.59;89.29
18858;BME280;9558;50.178;8.370;2024-02-21T11:19:04;98472.16;;;9.57;88.19
18858;BME280;9558;50.178;8.370;2024-02-21T11:21:53;98473.31;;;9.55;85.89
18858;BME280;9558;50.178;8.370;2024-02-21T11:24:41;98462.31;;;9.61;87.49
18858;BME280;9558;50.178;8.370;2024-02-21T11:27:33;98462.31;;;9.61;87.40
18858;BME280;9558;50.178;8.370;2024-02-21T11:30:26;98454.25;;;9.64;88.20
18858;BME280;9558;50.178;8.370;2024-02-21T11:33:13;98444.56;;;9.66;86.27
18858;BME280;9558;50.178;8.370;2024-02-21T11:36:00;98435.81;;;9.59;85.38
18858;BME280;9558;50.178;8.370;2024-02-21T11:38:48;98423.91;;;9.66;87.23
18858;BME280;9558;50.178;8.370;2024-02-21T11:41:35;98428.06;;;9.67;85.03
18858;BME280;9558;50.178;8.370;2024-02-21T11:44:22;98416.09;;;9.74;85.53
18858;BME280;9558;50.178;8.370;2024-02-21T11:47:09;98418.69;;;9.74;84.90
18858;BME280;9558;50.178;8.370;2024-02-21T11:49:56;98414.34;;;9.66;83.76
18858;BME280;9558;50.178;8.370;2024-02-21T11:52:43;98415.31;;;9.65;84.53
18858;BME280;9558;50.178;8.370;2024-02-21T11:55:32;98403.38;;;9.56;84.55
18858;BME280;9558;50.178;8.370;2024-02-21T11:58:20;98402.56;;;9.56;85.27
18858;BME280;9558;50.178;8.370;2024-02-21T12:01:07;98397.38;;;9.56;86.51
18858;BME280;9558;50.178;8.370;2024-02-21T12:03:54;98385.75;;;9.60;86.77
18858;BME280;9558;50.178;8.370;2024-02-21T12:06:42;98379.13;;;9.65;86.78
18858;BME280;9558;50.178;8.370;2024-02-21T12:09:29;98374.13;;;9.64;85.51
18858;BME280;9558;50.178;8.370;2024-02-21T12:12:20;98372.16;;;9.74;86.65
18858;BME280;9558;50.178;8.370;2024-02-21T12:15:07;98368.63;;;9.83;85.82
18858;BME280;9558;50.178;8.370;2024-02-21T12:17:55;98364.06;;;9.85;85.50
18858;BME280;9558;50.178;8.370;2024-02-21T12:20:41;98352.78;;;9.86;85.61
18858;BME280;9558;50.178;8.370;2024-02-21T12:23:29;98351.13;;;9.94;85.55
18858;BME280;9558;50.178;8.370;2024-02-21T12:26:16;98338.34;;;10.00;85.47
18858;BME280;9558;50.178;8.370;2024-02-21T12:29:05;98324.91;;;10.05;85.11
18858;BME280;9558;50.178;8.370;2024-02-21T12:31:52;98325.84;;;10.12;84.20
18858;BME280;9558;50.178;8.370;2024-02-21T12:34:39;98312.00;;;10.05;83.73
18858;BME280;9558;50.178;8.370;2024-02-21T12:37:26;98310.19;;;10.06;84.44
18858;BME280;9558;50.178;8.370;2024-02-21T12:40:13;98312.16;;;10.03;84.46
18858;BME280;9558;50.178;8.370;2024-02-21T12:43:00;98296.31;;;10.07;85.35
18858;BME280;9558;50.178;8.370;2024-02-21T12:45:49;98297.78;;;10.01;84.59
18858;BME280;9558;50.178;8.370;2024-02-21T12:48:36;98301.16;;;10.01;85.37
18858;BME280;9558;50.178;8.370;2024-02-21T12:51:23;98305.84;;;10.06;85.82
18858;BME280;9558;50.178;8.370;2024-02-21T12:54:10;98301.47;;;10.07;85.40
18858;BME280;9558;50.178;8.370;2024-02-21T12:56:57;98302.28;;;10.07;86.35
18858;BME280;9558;50.178;8.370;2024-02-21T12:59:48;98284.81;;;10.09;85.85
18858;BME280;9558;50.178;8.370;2024-02-21T13:02:37;98286.31;;;10.03;85.83
18858;BME280;9558;50.178;8.370;2024-02-21T13:05:24;98273.72;;;10.00;85.95
18858;BME280;9558;50.178;8.370;2024-02-21T13:08:11;98276.16;;;9.94;85.85
18858;BME280;9558;50.178;8.370;2024-02-21T13:10:58;98267.81;;;9.83;87.11
18858;BME280;9558;50.178;8.370;2024-02-21T13:13:45;98264.53;;;9.90;88.15
18858;BME280;9558;50.178;8.370;2024-02-21T13:16:32;98229.97;;;9.91;88.44
18858;BME280;9558;50.178;8.370;2024-02-21T13:19:21;98233.56;;;9.81;88.73
18858;BME280;9558;50.178;8.370;2024-02-21T13:22:08;98229.66;;;9.85;88.71
18858;BME280;9558;50.178;8.370;2024-02-21T13:24:55;98224.03;;;9.82;88.74
18858;BME280;9558;50.178;8.370;2024-02-21T13:27:41;98220.19;;;9.78;89.17
18858;BME280;9558;50.178;8.370;2024-02-21T13:30:28;98217.94;;;9.75;89.48
18858;BME280;9558;50.178;8.370;2024-02-21T13:33:15;98221.66;;;9.72;90.07
18858;BME280;9558;50.178;8.370;2024-02-21T13:36:05;98199.84;;;9.75;90.27
18858;BME280;9558;50.178;8.370;2024-02-21T13:38:52;98202.25;;;9.76;90.54
18858;BME280;9558;50.178;8.370;2024-02-21T13:41:39;98192.25;;;9.73;91.04
18858;BME280;9558;50.178;8.370;2024-02-21T13:44:26;98184.63;;;9.80;90.70
18858;BME280;9558;50.178;8.370;2024-02-21T13:47:14;98168.94;;;9.81;90.55
18858;BME280;9558;50.178;8.370;2024-02-21T13:50:01;98167.00;;;9.83;90.34
18858;BME280;9558;50.178;8.370;2024-02-21T13:52:51;98161.19;;;9.81;90.44
18858;BME280;9558;50.178;8.370;2024-02-21T13:55:38;98162.19;;;9.80;91.32
18858;BME280;9558;50.178;8.370;2024-02-21T13:58:26;98148.56;;;9.86;91.16
18858;BME280;9558;50.178;8.370;2024-02-21T14:01:13;98150.81;;;9.90;90.57
18858;BME280;9558;50.178;8.370;2024-02-21T14:04:00;98136.00;;;9.83;90.43
18858;BME280;9558;50.178;8.370;2024-02-21T14:06:46;98139.84;;;9.88;90.87
18858;BME280;9558;50.178;8.370;2024-02-21T14:09:35;98129.69;;;9.86;90.08
18858;BME280;9558;50.178;8.370;2024-02-21T14:12:22;98132.31;;;9.78;90.32
18858;BME280;9558;50.178;8.370;2024-02-21T14:15:09;98135.50;;;9.80;89.24
18858;BME280;9558;50.178;8.370;2024-02-21T14:17:56;98133.22;;;9.85;89.47
18858;BME280;9558;50.178;8.370;2024-02-21T14:20:43;98123.69;;;9.85;88.70
18858;BME280;9558;50.178;8.370;2024-02-21T14:23:32;98118.06;;;9.82;88.76
18858;BME280;9558;50.178;8.370;2024-02-21T14:26:23;98104.31;;;9.81;89.60
18858;BME280;9558;50.178;8.370;2024-02-21T14:29:10;98057.63;;;9.83;89.86
18858;BME280;9558;50.178;8.370;2024-02-21T14:31:58;98056.53;;;9.77;88.66
18858;BME280;9558;50.178;8.370;2024-02-21T14:34:45;98083.38;;;9.76;89.27
18858;BME280;9558;50.178;8.370;2024-02-21T14:37:32;98083.38;;;9.76;88.89
18858;BME280;9558;50.178;8.370;2024-02-21T14:40:19;98071.47;;;9.67;90.48
18858;BME280;9558;50.178;8.370;2024-02-21T14:43:07;98061.72;;;9.77;89.88
18858;BME280;9558;50.178;8.370;2024-02-21T14:45:54;98062.53;;;9.78;86.99
18858;BME280;9558;50.178;8.370;2024-02-21T14:48:45;98037.47;;;9.78;87.15
18858;BME280;9558;50.178;8.370;2024-02-21T14:51:32;98055.91;;;9.75;87.42
18858;BME280;9558;50.178;8.370;2024-02-21T14:54:19;98046.38;;;9.76;86.98
18858;BME280;9558;50.178;8.370;2024-02-21T14:57:06;98022.03;;;9.70;86.77
18858;BME280;9558;50.178;8.370;2024-02-21T14:59:55;98012.03;;;9.67;85.61
18858;BME280;9558;50.178;8.370;2024-02-21T15:02:44;98007.22;;;9.64;85.26
18858;BME280;9558;50.178;8.370;2024-02-21T15:05:31;97992.69;;;9.63;85.63